createdAt,value
2023-02-22T00:01:51.091Z,56.38
2023-02-22T00:04:21.338Z,56.42
2023-02-22T00:06:49.003Z,64.43
2023-02-22T00:09:20.637Z,58.60
2023-02-22T00:11:48.347Z,61.67
2023-02-22T00:14:15.154Z,58.90
2023-02-22T00:16:41.971Z,60.40
2023-02-22T00:19:10.845Z,70.85
2023-02-22T00:21:37.735Z,65.82
2023-02-22T00:24:22.932Z,65.35
2023-02-22T00:26:55.720Z,69.57
2023-02-22T00:29:23.728Z,70.78
2023-02-22T00:31:50.728Z,65.35
2023-02-22T00:34:17.791Z,75.20
2023-02-22T00:36:45.755Z,67.50
2023-02-22T00:39:12.714Z,65.90
2023-02-22T00:41:39.912Z,66.78
2023-02-22T00:44:07.302Z,71.95
2023-02-22T00:46:34.146Z,71.75
2023-02-22T00:49:01.261Z,66.55
2023-02-22T00:51:31.400Z,72.35
2023-02-22T00:53:58.285Z,79.32
2023-02-22T00:56:25.500Z,71.50
2023-02-22T00:58:52.303Z,78.75
2023-02-22T01:01:19.635Z,69.57
2023-02-22T01:03:46.687Z,75.28
2023-02-22T01:06:13.820Z,79.03
2023-02-22T01:08:44.389Z,78.20
2023-02-22T01:11:11.561Z,90.50
2023-02-22T01:13:38.589Z,68.68
2023-02-22T01:16:08.386Z,75.07
2023-02-22T01:18:36.275Z,64.80
2023-02-22T01:21:03.793Z,69.45
2023-02-22T01:23:31.097Z,69.43
2023-02-22T01:25:58.691Z,64.78
2023-02-22T01:28:25.476Z,69.07
2023-02-22T01:30:52.754Z,63.22
2023-02-22T01:33:19.837Z,68.32
2023-02-22T01:35:47.011Z,68.05
2023-02-22T01:38:14.678Z,68.10
2023-02-22T01:40:42.679Z,67.38
2023-02-22T01:43:19.013Z,70.03
2023-02-22T01:46:05.434Z,68.38
2023-02-22T01:48:38.787Z,65.68
2023-02-22T01:51:33.425Z,77.80
2023-02-22T01:54:15.543Z,71.65
2023-02-22T01:56:47.537Z,75.50
2023-02-22T01:59:14.994Z,64.07
2023-02-22T02:01:43.304Z,71.05
2023-02-22T02:04:12.407Z,74.88
2023-02-22T02:06:39.896Z,68.63
2023-02-22T02:09:10.939Z,73.45
2023-02-22T02:11:40.781Z,74.97
2023-02-22T02:14:11.951Z,81.75
2023-02-22T02:16:47.560Z,79.05
2023-02-22T02:19:26.136Z,67.43
2023-02-22T02:22:22.678Z,75.53
2023-02-22T02:24:50.696Z,80.18
2023-02-22T02:27:23.065Z,84.38
2023-02-22T02:29:55.708Z,78.57
2023-02-22T02:32:34.940Z,83.00
2023-02-22T02:35:22.644Z,83.03
2023-02-22T02:37:49.936Z,78.85
2023-02-22T02:40:17.906Z,81.38
2023-02-22T02:42:51.494Z,84.55
2023-02-22T02:45:21.773Z,78.20
2023-02-22T02:47:52.129Z,87.82
2023-02-22T02:50:25.221Z,87.47
2023-02-22T02:52:55.474Z,89.05
2023-02-22T02:55:22.528Z,78.90
2023-02-22T02:57:49.445Z,84.78
2023-02-22T03:00:23.799Z,97.32
2023-02-22T03:02:58.503Z,85.28
2023-02-22T03:05:26.351Z,91.30
2023-02-22T03:08:09.550Z,94.55
2023-02-22T03:10:37.879Z,86.15
2023-02-22T03:13:12.883Z,115.18
2023-02-22T03:15:46.447Z,90.55
2023-02-22T03:18:17.912Z,126.78
2023-02-22T03:20:50.284Z,94.13
2023-02-22T03:23:35.489Z,131.98
2023-02-22T03:26:04.680Z,143.60
2023-02-22T03:28:33.999Z,101.50
2023-02-22T03:31:18.635Z,109.32
2023-02-22T03:33:47.820Z,136.18
2023-02-22T03:36:20.998Z,217.13
2023-02-22T03:38:49.485Z,153.68
2023-02-22T03:41:19.241Z,272.38
2023-02-22T03:43:50.753Z,193.25
2023-02-22T03:46:19.477Z,202.73
2023-02-22T03:48:51.702Z,147.15
2023-02-22T03:51:19.248Z,200.05
2023-02-22T03:53:50.735Z,260.40
2023-02-22T03:56:35.743Z,445.08
2023-02-22T04:03:25.160Z,217.68
2023-02-22T04:05:53.402Z,297.55
2023-02-22T04:08:21.625Z,362.15
2023-02-22T04:10:48.571Z,485.75
2023-02-22T04:13:18.499Z,324.17
2023-02-22T04:15:47.782Z,335.45
2023-02-22T04:18:14.969Z,348.30
2023-02-22T04:20:42.110Z,173.38
2023-02-22T04:23:12.099Z,354.15
2023-02-22T04:25:41.328Z,354.58
2023-02-22T04:28:11.693Z,225.32
2023-02-22T04:30:44.781Z,287.75
2023-02-22T04:33:16.149Z,441.52
2023-02-22T04:35:43.329Z,265.33
2023-02-22T04:38:11.352Z,572.47
2023-02-22T04:40:41.062Z,333.20
2023-02-22T04:43:08.396Z,349.55
2023-02-22T04:45:35.560Z,365.77
2023-02-22T04:48:04.035Z,266.23
2023-02-22T04:50:31.078Z,375.60
2023-02-22T04:52:57.854Z,232.77
2023-02-22T04:55:24.655Z,337.80
2023-02-22T04:57:51.630Z,219.73
2023-02-22T05:00:21.837Z,267.90
2023-02-22T05:02:51.500Z,238.00
2023-02-22T05:05:21.424Z,177.85
2023-02-22T05:07:49.498Z,326.50
2023-02-22T05:10:16.428Z,249.80
2023-02-22T05:12:43.322Z,190.88
2023-02-22T05:15:11.295Z,179.23
2023-02-22T05:17:38.314Z,190.40
2023-02-22T05:20:05.644Z,234.30
2023-02-22T05:22:32.973Z,271.50
2023-02-22T05:24:59.907Z,239.93
2023-02-22T05:27:26.927Z,263.38
2023-02-22T05:29:53.849Z,374.75
2023-02-22T05:32:20.685Z,231.63
2023-02-22T05:34:47.540Z,465.33
2023-02-22T05:37:14.692Z,210.98
2023-02-22T05:39:42.060Z,235.50
2023-02-22T05:42:09.280Z,206.18
2023-02-22T05:44:36.608Z,173.88
2023-02-22T05:47:03.762Z,138.40
2023-02-22T05:49:30.814Z,136.50
2023-02-22T05:51:59.771Z,134.75
2023-02-22T05:54:26.702Z,119.55
2023-02-22T05:56:53.745Z,103.97
2023-02-22T05:59:21.378Z,118.22
2023-02-22T06:01:48.158Z,101.75
2023-02-22T06:04:15.026Z,105.28
2023-02-22T06:06:42.022Z,138.88
2023-02-22T06:09:08.939Z,132.23
2023-02-22T06:11:37.205Z,117.78
2023-02-22T06:14:04.094Z,83.88
2023-02-22T06:16:31.885Z,100.35
2023-02-22T06:18:59.925Z,94.68
2023-02-22T06:21:27.688Z,129.57
2023-02-22T06:23:54.642Z,122.20
2023-02-22T06:26:22.973Z,183.02
2023-02-22T06:28:50.551Z,119.35
2023-02-22T06:31:17.848Z,150.77
2023-02-22T06:33:45.132Z,111.30
2023-02-22T06:36:12.170Z,103.60
2023-02-22T06:38:39.250Z,82.63
2023-02-22T06:41:06.404Z,83.47
2023-02-22T06:43:33.367Z,129.82
2023-02-22T06:46:01.278Z,108.70
2023-02-22T06:48:28.044Z,109.18
2023-02-22T06:50:54.913Z,171.75
2023-02-22T06:53:21.838Z,102.25
2023-02-22T06:55:48.982Z,109.85
2023-02-22T06:58:16.137Z,171.23
2023-02-22T07:00:43.299Z,176.35
2023-02-22T07:03:11.064Z,132.38
2023-02-22T07:05:38.441Z,173.95
2023-02-22T07:08:06.689Z,149.35
2023-02-22T07:10:34.258Z,164.63
2023-02-22T07:13:01.677Z,112.63
2023-02-22T07:15:29.764Z,152.10
2023-02-22T07:17:57.085Z,112.63
2023-02-22T07:20:24.666Z,119.60
2023-02-22T07:22:51.647Z,104.60
2023-02-22T07:25:19.352Z,94.40
2023-02-22T07:27:46.963Z,114.57
2023-02-22T07:30:17.067Z,114.60
2023-02-22T07:32:44.579Z,96.07
2023-02-22T07:35:18.744Z,89.28
2023-02-22T07:37:45.803Z,86.38
2023-02-22T07:40:12.913Z,79.68
2023-02-22T07:42:52.228Z,86.30
2023-02-22T07:45:19.500Z,75.65
2023-02-22T07:47:47.706Z,82.68
2023-02-22T07:50:16.123Z,83.72
2023-02-22T07:52:46.861Z,73.80
2023-02-22T07:55:17.670Z,98.32
2023-02-22T07:57:48.769Z,83.80
2023-02-22T08:00:17.023Z,74.65
2023-02-22T08:02:44.264Z,62.25
2023-02-22T08:05:11.412Z,64.57
2023-02-22T08:07:38.623Z,69.13
2023-02-22T08:10:08.028Z,68.30
2023-02-22T08:12:36.177Z,65.95
2023-02-22T08:15:04.056Z,61.80
2023-02-22T08:17:30.850Z,63.90
2023-02-22T08:19:57.710Z,64.75
2023-02-22T08:22:24.747Z,61.65
2023-02-22T08:24:54.363Z,54.78
2023-02-22T08:27:25.561Z,56.83
2023-02-22T08:29:52.890Z,58.75
2023-02-22T08:32:20.733Z,50.40
2023-02-22T08:34:47.914Z,60.35
2023-02-22T08:37:18.155Z,54.72
2023-02-22T08:39:45.388Z,57.20
2023-02-22T08:42:12.491Z,52.05
2023-02-22T08:44:39.876Z,49.42
2023-02-22T08:47:07.645Z,48.83
2023-02-22T08:49:34.456Z,51.45
2023-02-22T08:52:01.540Z,52.78
2023-02-22T08:54:28.441Z,51.55
2023-02-22T08:56:55.301Z,49.40
2023-02-22T08:59:22.271Z,52.50
2023-02-22T09:01:49.305Z,52.55
2023-02-22T09:04:16.793Z,48.38
2023-02-22T09:06:48.286Z,51.80
2023-02-22T09:09:15.329Z,50.63
2023-02-22T09:11:42.096Z,50.78
2023-02-22T09:14:11.336Z,51.03
2023-02-22T09:16:38.427Z,49.90
2023-02-22T09:19:05.944Z,48.50
2023-02-22T09:21:32.882Z,47.15
2023-02-22T09:24:06.025Z,47.75
2023-02-22T09:26:33.342Z,52.72
2023-02-22T09:29:00.291Z,55.78
2023-02-22T09:31:27.270Z,48.10
2023-02-22T09:33:54.073Z,57.67
2023-02-22T09:36:21.951Z,43.65
2023-02-22T09:38:49.075Z,52.90
2023-02-22T09:41:21.254Z,49.00
2023-02-22T09:43:52.645Z,50.58
2023-02-22T09:46:26.105Z,48.65
2023-02-22T09:48:57.984Z,47.40
2023-02-22T09:51:45.846Z,50.63
2023-02-22T09:54:23.820Z,50.55
2023-02-22T09:56:52.732Z,53.20
2023-02-22T09:59:27.418Z,51.95
2023-02-22T10:01:58.292Z,53.05
2023-02-22T10:04:32.550Z,51.20
2023-02-22T10:07:12.031Z,54.65
2023-02-22T10:09:42.953Z,52.28
2023-02-22T10:12:25.254Z,45.78
2023-02-22T10:14:58.315Z,42.42
2023-02-22T10:17:27.314Z,45.28
2023-02-22T10:20:17.527Z,44.88
2023-02-22T10:22:49.540Z,48.13
2023-02-22T10:25:19.622Z,49.72
2023-02-22T10:28:06.912Z,49.58
2023-02-22T10:30:36.846Z,44.95
2023-02-22T10:33:15.241Z,45.22
2023-02-22T10:35:46.563Z,45.90
2023-02-22T10:38:20.355Z,44.70
2023-02-22T10:40:54.990Z,43.38
2023-02-22T10:43:23.471Z,49.15
2023-02-22T10:45:51.642Z,46.90
2023-02-22T10:48:19.214Z,42.28
2023-02-22T10:50:46.795Z,43.65
2023-02-22T10:53:15.502Z,41.97
2023-02-22T10:56:01.661Z,42.97
2023-02-22T10:58:29.041Z,44.95
2023-02-22T11:00:56.084Z,43.38
2023-02-22T11:03:24.015Z,43.90
2023-02-22T11:05:52.578Z,44.30
2023-02-22T11:08:24.503Z,46.42
2023-02-22T11:10:52.871Z,45.05
2023-02-22T11:13:31.242Z,47.03
2023-02-22T11:16:16.647Z,42.92
2023-02-22T11:18:44.446Z,44.38
2023-02-22T11:21:12.460Z,41.67
2023-02-22T11:23:43.691Z,40.95
2023-02-22T11:26:16.283Z,38.28
2023-02-22T11:28:49.479Z,41.90
2023-02-22T11:31:27.325Z,41.63
2023-02-22T11:36:33.267Z,38.42
2023-02-22T11:39:01.156Z,37.35
2023-02-22T11:41:34.259Z,40.50
2023-02-22T11:44:33.818Z,44.17
2023-02-22T11:47:07.102Z,43.25
2023-02-22T11:49:35.476Z,35.92
2023-02-22T11:52:03.369Z,38.28
2023-02-22T11:54:33.581Z,38.20
2023-02-22T11:57:22.163Z,37.90
2023-02-22T11:59:58.738Z,35.13
2023-02-22T12:07:25.434Z,37.00
2023-02-22T12:10:15.555Z,38.50
2023-02-22T12:12:52.652Z,36.40
2023-02-22T12:15:36.550Z,34.20
2023-02-22T12:18:05.297Z,32.83
2023-02-22T12:20:52.569Z,33.67
2023-02-22T12:23:40.816Z,33.03
2023-02-22T12:26:11.851Z,29.17
2023-02-22T12:28:44.533Z,34.80
2023-02-22T12:31:20.500Z,33.22
2023-02-22T12:36:15.679Z,30.02
2023-02-22T12:38:44.466Z,31.38
2023-02-22T12:41:22.850Z,29.90
2023-02-22T12:43:55.181Z,29.77
2023-02-22T12:46:27.123Z,32.97
2023-02-22T12:49:14.080Z,31.95
2023-02-22T12:52:15.937Z,32.88
2023-02-22T12:54:50.060Z,31.83
2023-02-22T12:57:35.984Z,32.78
2023-02-22T13:00:11.542Z,33.33
2023-02-22T13:02:56.930Z,30.20
2023-02-22T13:05:24.022Z,31.88
2023-02-22T13:08:06.571Z,33.15
2023-02-22T13:10:53.565Z,35.97
2023-02-22T13:13:27.452Z,33.67
2023-02-22T13:16:23.821Z,35.97
2023-02-22T13:18:57.673Z,31.20
2023-02-22T13:21:31.463Z,35.50
2023-02-22T13:24:05.529Z,36.00
2023-02-22T13:26:41.974Z,38.65
2023-02-22T13:29:17.377Z,34.25
2023-02-22T13:31:56.361Z,36.15
2023-02-22T13:34:42.232Z,33.22
2023-02-22T13:37:08.960Z,33.63
2023-02-22T13:39:47.280Z,33.22
2023-02-22T13:42:14.282Z,38.22
2023-02-22T13:45:00.032Z,32.60
2023-02-22T13:47:39.300Z,37.17
2023-02-22T13:50:22.448Z,36.22
2023-02-22T13:52:50.751Z,30.38
2023-02-22T13:55:28.260Z,34.75
2023-02-22T13:58:06.218Z,40.30
2023-02-22T14:00:39.838Z,36.50
2023-02-22T14:03:09.816Z,35.28
2023-02-22T14:05:39.838Z,37.17
2023-02-22T14:08:07.851Z,39.38
2023-02-22T14:10:37.757Z,40.55
2023-02-22T14:13:05.601Z,36.28
2023-02-22T14:15:32.525Z,38.55
2023-02-22T14:18:03.776Z,39.67
2023-02-22T14:20:35.235Z,38.08
2023-02-22T14:23:21.002Z,37.85
2023-02-22T14:25:48.236Z,36.30
2023-02-22T14:28:35.269Z,40.85
2023-02-22T14:31:07.056Z,42.63
2023-02-22T14:33:49.363Z,36.47
2023-02-22T14:36:17.244Z,41.08
2023-02-22T14:38:46.022Z,44.42
2023-02-22T14:41:14.950Z,45.38
2023-02-22T14:43:42.401Z,44.33
2023-02-22T14:46:13.384Z,42.85
2023-02-22T14:48:42.970Z,42.83
2023-02-22T14:51:21.361Z,42.50
2023-02-22T14:53:51.767Z,40.00
2023-02-22T14:56:25.899Z,43.50
2023-02-22T14:58:55.505Z,42.47
2023-02-22T15:01:31.189Z,43.10
2023-02-22T15:04:16.748Z,50.33
2023-02-22T15:06:43.652Z,43.17
2023-02-22T15:09:24.365Z,40.72
2023-02-22T15:11:55.159Z,46.10
2023-02-22T15:14:26.212Z,45.13
2023-02-22T15:16:54.842Z,46.40
2023-02-22T15:19:26.933Z,44.53
2023-02-22T15:21:55.359Z,40.88
2023-02-22T15:24:24.942Z,41.75
2023-02-22T15:27:01.368Z,41.60
2023-02-22T15:29:35.155Z,45.10
2023-02-22T15:32:02.143Z,41.95
2023-02-22T15:34:30.352Z,50.28
2023-02-22T15:36:58.451Z,45.50
2023-02-22T15:39:27.370Z,56.78
2023-02-22T15:42:21.190Z,43.03
2023-02-22T15:44:49.718Z,53.90
2023-02-22T15:47:18.084Z,48.50
2023-02-22T15:49:45.387Z,51.80
2023-02-22T15:52:15.429Z,62.63
2023-02-22T15:54:44.758Z,53.00
2023-02-22T15:57:14.679Z,58.67
2023-02-22T15:59:43.839Z,65.55
2023-02-22T16:02:20.631Z,67.95
2023-02-22T16:04:59.073Z,72.80
2023-02-22T16:07:26.515Z,79.57
2023-02-22T16:09:53.471Z,78.93
2023-02-22T16:12:20.304Z,87.10
2023-02-22T16:14:48.800Z,88.43
2023-02-22T16:17:25.962Z,89.45
2023-02-22T16:19:53.307Z,91.57
2023-02-22T16:22:26.981Z,86.20
2023-02-22T16:24:54.619Z,90.43
2023-02-22T16:27:24.061Z,85.95
2023-02-22T16:30:23.402Z,85.60
2023-02-22T16:32:51.815Z,90.63
2023-02-22T16:35:19.203Z,88.40
2023-02-22T16:37:46.166Z,96.68
2023-02-22T16:40:22.735Z,93.20
2023-02-22T16:42:52.047Z,92.72
2023-02-22T16:45:19.649Z,95.65
2023-02-22T16:47:46.820Z,100.80
2023-02-22T16:50:14.421Z,100.72
2023-02-22T16:52:41.365Z,97.15
2023-02-22T16:55:16.049Z,100.55
2023-02-22T16:57:43.537Z,104.15
2023-02-22T17:00:31.645Z,104.38
2023-02-22T17:02:59.558Z,116.22
2023-02-22T17:05:26.635Z,118.30
2023-02-22T17:07:53.560Z,113.18
2023-02-22T17:10:20.577Z,111.07
2023-02-22T17:12:49.386Z,111.43
2023-02-22T17:15:23.847Z,110.38
2023-02-22T17:17:52.011Z,124.50
2023-02-22T17:20:30.276Z,131.85
2023-02-22T17:23:01.114Z,129.98
2023-02-22T17:25:29.901Z,132.25
2023-02-22T17:27:57.088Z,137.48
2023-02-22T17:30:24.223Z,128.18
2023-02-22T17:32:51.709Z,134.30
2023-02-22T17:35:23.251Z,130.82
2023-02-22T17:37:50.573Z,133.63
2023-02-22T17:40:17.723Z,135.85
2023-02-22T17:42:45.150Z,147.63
2023-02-22T17:45:16.382Z,134.77
2023-02-22T17:47:44.060Z,140.73
2023-02-22T17:50:11.732Z,139.43
2023-02-22T17:52:38.886Z,148.68
2023-02-22T17:55:06.641Z,142.35
2023-02-22T17:57:34.038Z,144.45
2023-02-22T18:00:01.339Z,152.88
2023-02-22T18:02:28.259Z,139.73
2023-02-22T18:04:55.195Z,169.13
2023-02-22T18:07:22.088Z,180.80
2023-02-22T18:09:49.047Z,182.07
2023-02-22T18:12:15.896Z,191.57
2023-02-22T18:14:42.933Z,167.30
2023-02-22T18:17:09.810Z,184.60
2023-02-22T18:19:36.673Z,193.52
2023-02-22T18:22:04.319Z,184.40
2023-02-22T18:24:32.187Z,199.25
2023-02-22T18:26:59.174Z,205.80
2023-02-22T18:29:25.927Z,199.98
2023-02-22T18:31:53.602Z,193.98
2023-02-22T18:34:25.054Z,217.23
2023-02-22T18:36:52.473Z,192.13
2023-02-22T18:39:19.277Z,175.23
2023-02-22T18:41:48.660Z,192.73
2023-02-22T18:44:16.220Z,186.55
2023-02-22T18:46:43.684Z,189.40
2023-02-22T18:49:12.707Z,177.57
2023-02-22T18:51:43.345Z,188.70
2023-02-22T18:54:11.682Z,194.30
2023-02-22T18:56:40.698Z,182.88
2023-02-22T18:59:12.187Z,192.75
2023-02-22T19:01:40.918Z,187.20
2023-02-22T19:04:14.758Z,184.80
2023-02-22T19:06:43.330Z,202.75
2023-02-22T19:09:10.377Z,180.07
2023-02-22T19:11:37.261Z,182.10
2023-02-22T19:14:05.336Z,200.23
2023-02-22T19:16:32.979Z,179.68
2023-02-22T19:19:00.306Z,188.68
2023-02-22T19:21:28.861Z,189.70
2023-02-22T19:24:00.416Z,201.43
2023-02-22T19:26:29.166Z,178.15
2023-02-22T19:28:57.260Z,187.43
2023-02-22T19:31:31.628Z,162.65
2023-02-22T19:34:02.142Z,160.20
2023-02-22T19:36:28.999Z,141.63
2023-02-22T19:38:57.640Z,144.52
2023-02-22T19:41:24.474Z,142.55
2023-02-22T19:43:52.870Z,130.63
2023-02-22T19:46:21.490Z,130.75
2023-02-22T19:48:48.842Z,139.80
2023-02-22T19:51:16.748Z,135.40
2023-02-22T19:53:44.417Z,130.13
2023-02-22T19:56:13.146Z,122.47
2023-02-22T19:58:41.199Z,129.73
2023-02-22T20:01:22.999Z,141.35
2023-02-22T20:03:54.212Z,145.30
2023-02-22T20:06:21.701Z,125.28
2023-02-22T20:08:51.340Z,125.15
2023-02-22T20:11:18.512Z,130.80
2023-02-22T20:13:45.623Z,118.07
2023-02-22T20:16:15.770Z,121.53
2023-02-22T20:18:43.254Z,127.97
2023-02-22T20:21:10.950Z,134.20
2023-02-22T20:23:40.774Z,123.30
2023-02-22T20:26:12.134Z,137.25
2023-02-22T20:28:38.933Z,114.80
2023-02-22T20:31:20.420Z,121.53
2023-02-22T20:33:48.718Z,124.78
2023-02-22T20:36:17.427Z,120.10
2023-02-22T20:38:44.515Z,115.40
2023-02-22T20:41:16.313Z,130.50
2023-02-22T20:43:43.439Z,118.05
2023-02-22T20:46:10.890Z,114.40
2023-02-22T20:48:40.816Z,120.88
2023-02-22T20:51:08.402Z,124.47
2023-02-22T20:53:35.760Z,118.93
2023-02-22T20:56:02.778Z,123.57
2023-02-22T20:58:29.921Z,128.48
2023-02-22T21:00:56.854Z,124.18
2023-02-22T21:03:23.701Z,130.52
2023-02-22T21:05:50.510Z,125.72
2023-02-22T21:08:17.567Z,126.78
2023-02-22T21:10:46.035Z,118.78
2023-02-22T21:13:13.553Z,135.13
2023-02-22T21:15:43.555Z,140.98
2023-02-22T21:18:11.158Z,136.40
2023-02-22T21:20:40.969Z,135.10
2023-02-22T21:23:08.449Z,142.98
2023-02-22T21:25:35.496Z,135.30
2023-02-22T21:28:02.838Z,136.88
2023-02-22T21:30:29.786Z,127.90
2023-02-22T21:32:56.988Z,134.15
2023-02-22T21:35:24.506Z,128.25
2023-02-22T21:37:52.515Z,126.10
2023-02-22T21:40:19.986Z,132.00
2023-02-22T21:42:48.167Z,133.88
2023-02-22T21:45:15.830Z,129.35
2023-02-22T21:47:42.892Z,138.65
2023-02-22T21:50:10.918Z,125.50
2023-02-22T21:52:37.867Z,139.15
2023-02-22T21:55:06.395Z,135.48
2023-02-22T21:57:33.240Z,140.68
2023-02-22T22:00:00.064Z,141.27
2023-02-22T22:02:29.176Z,141.18
2023-02-22T22:04:56.552Z,134.55
2023-02-22T22:07:23.270Z,133.57
2023-02-22T22:09:56.537Z,140.68
2023-02-22T22:12:25.949Z,145.93
2023-02-22T22:14:55.313Z,132.07
2023-02-22T22:17:22.264Z,139.48
2023-02-22T22:19:49.246Z,144.57
2023-02-22T22:22:16.453Z,141.05
2023-02-22T22:24:45.932Z,144.48
2023-02-22T22:27:13.203Z,142.90
2023-02-22T22:29:40.947Z,142.13
2023-02-22T22:32:09.326Z,131.40
2023-02-22T22:34:37.923Z,141.32
2023-02-22T22:37:05.381Z,140.68
2023-02-22T22:39:32.286Z,136.65
2023-02-22T22:41:59.135Z,149.43
2023-02-22T22:44:32.670Z,139.20
2023-02-22T22:47:00.220Z,138.73
2023-02-22T22:49:29.300Z,134.93
2023-02-22T22:51:56.170Z,144.68
2023-02-22T22:54:24.138Z,147.05
2023-02-22T22:56:51.129Z,143.45
2023-02-22T22:59:17.991Z,146.80
2023-02-22T23:01:45.088Z,144.63
2023-02-22T23:04:13.560Z,128.13
2023-02-22T23:06:41.557Z,149.80
2023-02-22T23:09:19.222Z,157.15
2023-02-22T23:11:47.826Z,144.80
2023-02-22T23:14:19.604Z,147.90
2023-02-22T23:16:47.069Z,143.80
2023-02-22T23:19:15.734Z,132.80
2023-02-22T23:21:44.164Z,148.20
2023-02-22T23:24:15.225Z,133.15
2023-02-22T23:26:42.832Z,144.23
2023-02-22T23:29:09.895Z,152.98
2023-02-22T23:31:39.905Z,144.27
2023-02-22T23:34:11.256Z,147.45
2023-02-22T23:36:44.882Z,140.82
2023-02-22T23:39:12.199Z,152.48
2023-02-22T23:41:39.537Z,143.48
2023-02-22T23:44:08.476Z,155.38
2023-02-22T23:46:36.801Z,161.35
2023-02-22T23:49:05.330Z,149.07
2023-02-22T23:51:43.115Z,153.65
2023-02-22T23:54:14.137Z,152.90
2023-02-22T23:56:47.289Z,149.90
2023-02-22T23:59:14.434Z,159.25
